sensor_id;sensor_type;location;lat;lon;timestamp;P1;durP1;ratioP1;P2;durP2;ratioP2
39140;SDS011;24875;48.436;10.298;2022-07-17T00:01:12;9.15;;;2.00;;
39140;SDS011;24875;48.436;10.298;2022-07-17T00:03:39;6.38;;;2.05;;
39140;SDS011;24875;48.436;10.298;2022-07-17T00:06:06;4.85;;;2.10;;
39140;SDS011;24875;48.436;10.298;2022-07-17T00:08:32;4.85;;;2.17;;
39140;SDS011;24875;48.436;10.298;2022-07-17T00:10:59;5.70;;;2.80;;
39140;SDS011;24875;48.436;10.298;2022-07-17T00:13:26;3.20;;;2.35;;
39140;SDS011;24875;48.436;10.298;2022-07-17T00:15:54;6.07;;;2.28;;
39140;SDS011;24875;48.436;10.298;2022-07-17T00:18:20;5.13;;;2.58;;
39140;SDS011;24875;48.436;10.298;2022-07-17T00:20:47;4.20;;;2.40;;
39140;SDS011;24875;48.436;10.298;2022-07-17T00:23:14;4.68;;;2.45;;
39140;SDS011;24875;48.436;10.298;2022-07-17T00:25:40;5.38;;;2.33;;
39140;SDS011;24875;48.436;10.298;2022-07-17T00:28:06;2.78;;;2.40;;
39140;SDS011;24875;48.436;10.298;2022-07-17T00:30:33;5.47;;;2.17;;
39140;SDS011;24875;48.436;10.298;2022-07-17T00:33:01;8.30;;;2.50;;
39140;SDS011;24875;48.436;10.298;2022-07-17T00:35:27;6.30;;;2.70;;
39140;SDS011;24875;48.436;10.298;2022-07-17T00:37:54;3.42;;;2.42;;
39140;SDS011;24875;48.436;10.298;2022-07-17T00:40:21;4.07;;;2.10;;
39140;SDS011;24875;48.436;10.298;2022-07-17T00:42:49;8.50;;;2.60;;
39140;SDS011;24875;48.436;10.298;2022-07-17T00:45:17;7.38;;;2.30;;
39140;SDS011;24875;48.436;10.298;2022-07-17T00:47:48;4.65;;;2.40;;
39140;SDS011;24875;48.436;10.298;2022-07-17T00:50:18;5.75;;;2.70;;
39140;SDS011;24875;48.436;10.298;2022-07-17T00:52:45;5.68;;;2.10;;
39140;SDS011;24875;48.436;10.298;2022-07-17T00:55:12;6.22;;;2.55;;
39140;SDS011;24875;48.436;10.298;2022-07-17T00:57:40;5.85;;;2.92;;
39140;SDS011;24875;48.436;10.298;2022-07-17T01:00:08;5.97;;;2.22;;
39140;SDS011;24875;48.436;10.298;2022-07-17T01:02:35;5.32;;;2.38;;
39140;SDS011;24875;48.436;10.298;2022-07-17T01:05:02;3.33;;;2.20;;
39140;SDS011;24875;48.436;10.298;2022-07-17T01:07:31;4.40;;;2.05;;
39140;SDS011;24875;48.436;10.298;2022-07-17T01:09:59;4.75;;;2.38;;
39140;SDS011;24875;48.436;10.298;2022-07-17T01:12:25;3.67;;;2.45;;
39140;SDS011;24875;48.436;10.298;2022-07-17T01:14:53;4.20;;;2.47;;
39140;SDS011;24875;48.436;10.298;2022-07-17T01:17:21;4.10;;;2.50;;
39140;SDS011;24875;48.436;10.298;2022-07-17T01:19:48;4.18;;;2.35;;
39140;SDS011;24875;48.436;10.298;2022-07-17T01:22:15;4.30;;;2.42;;
39140;SDS011;24875;48.436;10.298;2022-07-17T01:24:42;5.60;;;2.58;;
39140;SDS011;24875;48.436;10.298;2022-07-17T01:27:08;4.32;;;2.85;;
39140;SDS011;24875;48.436;10.298;2022-07-17T01:29:35;2.97;;;2.10;;
39140;SDS011;24875;48.436;10.298;2022-07-17T01:32:03;3.75;;;2.55;;
39140;SDS011;24875;48.436;10.298;2022-07-17T01:34:30;4.05;;;2.63;;
39140;SDS011;24875;48.436;10.298;2022-07-17T01:36:57;5.82;;;2.60;;
39140;SDS011;24875;48.436;10.298;2022-07-17T01:39:25;4.22;;;2.50;;
39140;SDS011;24875;48.436;10.298;2022-07-17T01:42:05;4.00;;;2.17;;
39140;SDS011;24875;48.436;10.298;2022-07-17T01:44:32;7.22;;;2.75;;
39140;SDS011;24875;48.436;10.298;2022-07-17T01:46:58;3.85;;;2.53;;
39140;SDS011;24875;48.436;10.298;2022-07-17T01:49:25;5.20;;;2.70;;
39140;SDS011;24875;48.436;10.298;2022-07-17T01:51:51;3.47;;;2.10;;
39140;SDS011;24875;48.436;10.298;2022-07-17T01:54:18;3.72;;;2.33;;
39140;SDS011;24875;48.436;10.298;2022-07-17T01:56:46;3.55;;;2.35;;
39140;SDS011;24875;48.436;10.298;2022-07-17T01:59:12;4.20;;;2.55;;
39140;SDS011;24875;48.436;10.298;2022-07-17T02:01:39;6.75;;;3.17;;
39140;SDS011;24875;48.436;10.298;2022-07-17T02:04:05;5.18;;;2.67;;
39140;SDS011;24875;48.436;10.298;2022-07-17T02:06:31;4.43;;;2.60;;
39140;SDS011;24875;48.436;10.298;2022-07-17T02:08:58;3.63;;;2.53;;
39140;SDS011;24875;48.436;10.298;2022-07-17T02:11:24;9.73;;;3.00;;
39140;SDS011;24875;48.436;10.298;2022-07-17T02:13:52;5.72;;;2.70;;
39140;SDS011;24875;48.436;10.298;2022-07-17T02:16:19;3.83;;;2.60;;
39140;SDS011;24875;48.436;10.298;2022-07-17T02:18:45;3.33;;;2.50;;
39140;SDS011;24875;48.436;10.298;2022-07-17T02:21:12;4.20;;;2.28;;
39140;SDS011;24875;48.436;10.298;2022-07-17T02:23:38;7.32;;;3.00;;
39140;SDS011;24875;48.436;10.298;2022-07-17T02:26:05;3.25;;;2.28;;
39140;SDS011;24875;48.436;10.298;2022-07-17T02:28:31;4.00;;;2.70;;
39140;SDS011;24875;48.436;10.298;2022-07-17T02:30:59;6.50;;;2.70;;
39140;SDS011;24875;48.436;10.298;2022-07-17T02:33:26;5.50;;;2.90;;
39140;SDS011;24875;48.436;10.298;2022-07-17T02:35:52;4.88;;;2.97;;
39140;SDS011;24875;48.436;10.298;2022-07-17T02:38:18;4.30;;;2.53;;
39140;SDS011;24875;48.436;10.298;2022-07-17T02:40:45;6.45;;;2.70;;
39140;SDS011;24875;48.436;10.298;2022-07-17T02:43:12;4.18;;;2.40;;
39140;SDS011;24875;48.436;10.298;2022-07-17T02:45:38;4.28;;;2.55;;
39140;SDS011;24875;48.436;10.298;2022-07-17T02:48:06;7.47;;;2.75;;
39140;SDS011;24875;48.436;10.298;2022-07-17T02:50:32;4.25;;;2.70;;
39140;SDS011;24875;48.436;10.298;2022-07-17T02:52:59;4.97;;;2.72;;
39140;SDS011;24875;48.436;10.298;2022-07-17T02:55:26;3.90;;;2.38;;
39140;SDS011;24875;48.436;10.298;2022-07-17T02:57:52;7.13;;;2.92;;
39140;SDS011;24875;48.436;10.298;2022-07-17T03:00:18;4.85;;;2.78;;
39140;SDS011;24875;48.436;10.298;2022-07-17T03:02:45;6.32;;;3.00;;
39140;SDS011;24875;48.436;10.298;2022-07-17T03:05:15;4.60;;;2.80;;
39140;SDS011;24875;48.436;10.298;2022-07-17T03:07:42;3.95;;;2.92;;
39140;SDS011;24875;48.436;10.298;2022-07-17T03:10:09;4.22;;;2.53;;
39140;SDS011;24875;48.436;10.298;2022-07-17T03:12:36;4.32;;;2.65;;
39140;SDS011;24875;48.436;10.298;2022-07-17T03:15:03;3.53;;;2.35;;
39140;SDS011;24875;48.436;10.298;2022-07-17T03:17:30;6.03;;;2.65;;
39140;SDS011;24875;48.436;10.298;2022-07-17T03:19:57;3.97;;;2.70;;
39140;SDS011;24875;48.436;10.298;2022-07-17T03:22:25;4.65;;;2.83;;
39140;SDS011;24875;48.436;10.298;2022-07-17T03:24:52;4.97;;;2.70;;
39140;SDS011;24875;48.436;10.298;2022-07-17T03:27:18;8.23;;;2.88;;
39140;SDS011;24875;48.436;10.298;2022-07-17T03:29:45;6.72;;;2.75;;
39140;SDS011;24875;48.436;10.298;2022-07-17T03:32:11;7.97;;;2.78;;
39140;SDS011;24875;48.436;10.298;2022-07-17T03:34:38;5.07;;;2.80;;
39140;SDS011;24875;48.436;10.298;2022-07-17T03:37:05;5.22;;;2.70;;
39140;SDS011;24875;48.436;10.298;2022-07-17T03:39:33;5.85;;;2.90;;
39140;SDS011;24875;48.436;10.298;2022-07-17T03:41:59;5.30;;;2.60;;
39140;SDS011;24875;48.436;10.298;2022-07-17T03:44:26;5.63;;;2.72;;
39140;SDS011;24875;48.436;10.298;2022-07-17T03:46:52;7.55;;;3.13;;
39140;SDS011;24875;48.436;10.298;2022-07-17T03:49:19;5.38;;;2.67;;
39140;SDS011;24875;48.436;10.298;2022-07-17T03:51:45;6.18;;;3.10;;
39140;SDS011;24875;48.436;10.298;2022-07-17T03:54:12;5.20;;;2.67;;
39140;SDS011;24875;48.436;10.298;2022-07-17T03:56:40;5.60;;;2.92;;
39140;SDS011;24875;48.436;10.298;2022-07-17T03:59:06;12.68;;;3.10;;
39140;SDS011;24875;48.436;10.298;2022-07-17T04:01:33;4.35;;;2.90;;
39140;SDS011;24875;48.436;10.298;2022-07-17T04:03:59;5.22;;;3.20;;
39140;SDS011;24875;48.436;10.298;2022-07-17T04:06:26;5.37;;;3.00;;
39140;SDS011;24875;48.436;10.298;2022-07-17T04:08:52;8.52;;;3.35;;
39140;SDS011;24875;48.436;10.298;2022-07-17T04:11:19;5.40;;;3.30;;
39140;SDS011;24875;48.436;10.298;2022-07-17T04:13:47;6.43;;;2.95;;
39140;SDS011;24875;48.436;10.298;2022-07-17T04:16:14;5.82;;;3.33;;
39140;SDS011;24875;48.436;10.298;2022-07-17T04:18:40;9.27;;;3.03;;
39140;SDS011;24875;48.436;10.298;2022-07-17T04:21:08;5.30;;;3.33;;
39140;SDS011;24875;48.436;10.298;2022-07-17T04:23:36;7.13;;;3.45;;
39140;SDS011;24875;48.436;10.298;2022-07-17T04:26:03;17.20;;;3.50;;
39140;SDS011;24875;48.436;10.298;2022-07-17T04:28:31;7.28;;;3.60;;
39140;SDS011;24875;48.436;10.298;2022-07-17T04:30:59;5.63;;;3.30;;
39140;SDS011;24875;48.436;10.298;2022-07-17T04:33:25;9.13;;;3.47;;
39140;SDS011;24875;48.436;10.298;2022-07-17T04:35:52;8.20;;;3.33;;
39140;SDS011;24875;48.436;10.298;2022-07-17T04:38:18;9.70;;;3.60;;
39140;SDS011;24875;48.436;10.298;2022-07-17T04:40:45;6.28;;;3.58;;
39140;SDS011;24875;48.436;10.298;2022-07-17T04:43:12;5.05;;;3.70;;
39140;SDS011;24875;48.436;10.298;2022-07-17T04:45:38;8.43;;;3.70;;
39140;SDS011;24875;48.436;10.298;2022-07-17T04:48:06;7.65;;;3.80;;
39140;SDS011;24875;48.436;10.298;2022-07-17T04:50:33;8.70;;;4.32;;
39140;SDS011;24875;48.436;10.298;2022-07-17T04:52:59;6.70;;;3.47;;
39140;SDS011;24875;48.436;10.298;2022-07-17T04:55:26;6.50;;;4.15;;
39140;SDS011;24875;48.436;10.298;2022-07-17T04:57:53;6.57;;;4.00;;
39140;SDS011;24875;48.436;10.298;2022-07-17T05:00:20;9.68;;;4.45;;
39140;SDS011;24875;48.436;10.298;2022-07-17T05:02:47;8.63;;;3.22;;
39140;SDS011;24875;48.436;10.298;2022-07-17T05:05:15;7.90;;;4.18;;
39140;SDS011;24875;48.436;10.298;2022-07-17T05:07:41;9.30;;;4.45;;
39140;SDS011;24875;48.436;10.298;2022-07-17T05:10:08;7.38;;;4.60;;
39140;SDS011;24875;48.436;10.298;2022-07-17T05:12:35;8.52;;;4.32;;
39140;SDS011;24875;48.436;10.298;2022-07-17T05:15:01;11.77;;;3.88;;
39140;SDS011;24875;48.436;10.298;2022-07-17T05:17:28;9.23;;;3.97;;
39140;SDS011;24875;48.436;10.298;2022-07-17T05:19:55;6.72;;;4.07;;
39140;SDS011;24875;48.436;10.298;2022-07-17T05:22:22;6.82;;;4.50;;
39140;SDS011;24875;48.436;10.298;2022-07-17T05:24:49;8.27;;;4.43;;
39140;SDS011;24875;48.436;10.298;2022-07-17T05:27:16;5.35;;;3.72;;
39140;SDS011;24875;48.436;10.298;2022-07-17T05:29:42;5.53;;;3.80;;
39140;SDS011;24875;48.436;10.298;2022-07-17T05:32:09;10.27;;;4.07;;
39140;SDS011;24875;48.436;10.298;2022-07-17T05:34:35;7.70;;;4.18;;
39140;SDS011;24875;48.436;10.298;2022-07-17T05:37:02;6.57;;;3.97;;
39140;SDS011;24875;48.436;10.298;2022-07-17T05:39:29;7.93;;;3.15;;
39140;SDS011;24875;48.436;10.298;2022-07-17T05:41:56;4.75;;;2.90;;
39140;SDS011;24875;48.436;10.298;2022-07-17T05:44:22;5.70;;;3.65;;
39140;SDS011;24875;48.436;10.298;2022-07-17T05:46:49;5.28;;;3.20;;
39140;SDS011;24875;48.436;10.298;2022-07-17T05:49:15;6.97;;;3.10;;
39140;SDS011;24875;48.436;10.298;2022-07-17T05:51:42;6.40;;;3.10;;
39140;SDS011;24875;48.436;10.298;2022-07-17T05:54:08;7.68;;;3.08;;
39140;SDS011;24875;48.436;10.298;2022-07-17T05:56:36;8.15;;;3.22;;
39140;SDS011;24875;48.436;10.298;2022-07-17T05:59:02;5.20;;;3.00;;
39140;SDS011;24875;48.436;10.298;2022-07-17T06:01:29;4.25;;;2.78;;
39140;SDS011;24875;48.436;10.298;2022-07-17T06:03:56;4.22;;;3.30;;
39140;SDS011;24875;48.436;10.298;2022-07-17T06:06:22;5.90;;;3.10;;
39140;SDS011;24875;48.436;10.298;2022-07-17T06:08:49;5.22;;;2.92;;
39140;SDS011;24875;48.436;10.298;2022-07-17T06:11:15;6.05;;;2.78;;
39140;SDS011;24875;48.436;10.298;2022-07-17T06:13:43;5.25;;;2.78;;
39140;SDS011;24875;48.436;10.298;2022-07-17T06:16:09;5.28;;;2.63;;
39140;SDS011;24875;48.436;10.298;2022-07-17T06:18:36;4.85;;;3.10;;
39140;SDS011;24875;48.436;10.298;2022-07-17T06:21:02;6.40;;;3.13;;
39140;SDS011;24875;48.436;10.298;2022-07-17T06:23:29;5.38;;;2.63;;
39140;SDS011;24875;48.436;10.298;2022-07-17T06:25:56;6.50;;;2.97;;
39140;SDS011;24875;48.436;10.298;2022-07-17T06:28:22;5.80;;;2.50;;
39140;SDS011;24875;48.436;10.298;2022-07-17T06:30:50;6.70;;;2.90;;
39140;SDS011;24875;48.436;10.298;2022-07-17T06:33:17;4.60;;;2.60;;
39140;SDS011;24875;48.436;10.298;2022-07-17T06:35:43;7.38;;;2.67;;
39140;SDS011;24875;48.436;10.298;2022-07-17T06:38:10;4.50;;;2.97;;
39140;SDS011;24875;48.436;10.298;2022-07-17T06:40:36;6.30;;;3.17;;
39140;SDS011;24875;48.436;10.298;2022-07-17T06:43:04;4.45;;;2.75;;
39140;SDS011;24875;48.436;10.298;2022-07-17T06:45:31;6.05;;;2.70;;
39140;SDS011;24875;48.436;10.298;2022-07-17T06:47:59;3.78;;;2.42;;
39140;SDS011;24875;48.436;10.298;2022-07-17T06:50:26;3.92;;;2.45;;
39140;SDS011;24875;48.436;10.298;2022-07-17T06:52:52;3.33;;;2.60;;
39140;SDS011;24875;48.436;10.298;2022-07-17T06:55:19;4.40;;;2.58;;
39140;SDS011;24875;48.436;10.298;2022-07-17T06:57:45;5.70;;;2.65;;
39140;SDS011;24875;48.436;10.298;2022-07-17T07:00:12;4.20;;;2.75;;
39140;SDS011;24875;48.436;10.298;2022-07-17T07:02:40;5.95;;;3.05;;
39140;SDS011;24875;48.436;10.298;2022-07-17T07:05:08;8.20;;;2.95;;
39140;SDS011;24875;48.436;10.298;2022-07-17T07:07:35;5.20;;;2.30;;
39140;SDS011;24875;48.436;10.298;2022-07-17T07:10:01;4.53;;;2.40;;
39140;SDS011;24875;48.436;10.298;2022-07-17T07:12:28;6.50;;;2.63;;
39140;SDS011;24875;48.436;10.298;2022-07-17T07:14:55;3.38;;;2.80;;
39140;SDS011;24875;48.436;10.298;2022-07-17T07:17:22;3.47;;;2.63;;
39140;SDS011;24875;48.436;10.298;2022-07-17T07:19:49;3.97;;;2.55;;
39140;SDS011;24875;48.436;10.298;2022-07-17T07:22:16;7.22;;;2.47;;
39140;SDS011;24875;48.436;10.298;2022-07-17T07:24:43;4.32;;;2.53;;
39140;SDS011;24875;48.436;10.298;2022-07-17T07:27:09;5.60;;;2.70;;
39140;SDS011;24875;48.436;10.298;2022-07-17T07:29:36;4.13;;;2.67;;
39140;SDS011;24875;48.436;10.298;2022-07-17T07:32:02;3.35;;;2.50;;
39140;SDS011;24875;48.436;10.298;2022-07-17T07:34:29;4.70;;;3.08;;
39140;SDS011;24875;48.436;10.298;2022-07-17T07:36:56;3.47;;;2.55;;
39140;SDS011;24875;48.436;10.298;2022-07-17T07:39:24;4.00;;;2.45;;
39140;SDS011;24875;48.436;10.298;2022-07-17T07:41:50;4.22;;;2.65;;
39140;SDS011;24875;48.436;10.298;2022-07-17T07:44:17;4.00;;;2.72;;
39140;SDS011;24875;48.436;10.298;2022-07-17T07:46:44;5.05;;;2.60;;
39140;SDS011;24875;48.436;10.298;2022-07-17T07:49:10;4.53;;;2.83;;
39140;SDS011;24875;48.436;10.298;2022-07-17T07:51:37;4.60;;;2.50;;
39140;SDS011;24875;48.436;10.298;2022-07-17T07:54:03;4.20;;;2.60;;
39140;SDS011;24875;48.436;10.298;2022-07-17T07:56:31;3.85;;;2.47;;
39140;SDS011;24875;48.436;10.298;2022-07-17T07:58:58;5.15;;;2.10;;
39140;SDS011;24875;48.436;10.298;2022-07-17T08:01:25;4.22;;;2.42;;
39140;SDS011;24875;48.436;10.298;2022-07-17T08:03:51;5.10;;;2.63;;
39140;SDS011;24875;48.436;10.298;2022-07-17T08:06:18;5.22;;;2.40;;
39140;SDS011;24875;48.436;10.298;2022-07-17T08:08:44;4.88;;;2.50;;
39140;SDS011;24875;48.436;10.298;2022-07-17T08:11:11;4.05;;;2.70;;
39140;SDS011;24875;48.436;10.298;2022-07-17T08:13:39;3.10;;;2.35;;
39140;SDS011;24875;48.436;10.298;2022-07-17T08:16:05;4.95;;;2.47;;
39140;SDS011;24875;48.436;10.298;2022-07-17T08:18:32;4.25;;;2.78;;
39140;SDS011;24875;48.436;10.298;2022-07-17T08:20:59;2.92;;;2.08;;
39140;SDS011;24875;48.436;10.298;2022-07-17T08:23:26;3.83;;;2.55;;
39140;SDS011;24875;48.436;10.298;2022-07-17T08:25:52;7.70;;;2.50;;
39140;SDS011;24875;48.436;10.298;2022-07-17T08:28:19;4.07;;;2.60;;
39140;SDS011;24875;48.436;10.298;2022-07-17T08:30:47;4.85;;;2.10;;
39140;SDS011;24875;48.436;10.298;2022-07-17T08:33:14;3.78;;;2.28;;
39140;SDS011;24875;48.436;10.298;2022-07-17T08:35:41;5.35;;;2.47;;
39140;SDS011;24875;48.436;10.298;2022-07-17T08:38:08;4.65;;;2.70;;
39140;SDS011;24875;48.436;10.298;2022-07-17T08:40:35;5.22;;;2.45;;
39140;SDS011;24875;48.436;10.298;2022-07-17T08:43:03;4.95;;;2.65;;
39140;SDS011;24875;48.436;10.298;2022-07-17T08:45:31;4.28;;;2.28;;
39140;SDS011;24875;48.436;10.298;2022-07-17T08:47:59;7.80;;;2.60;;
39140;SDS011;24875;48.436;10.298;2022-07-17T08:50:27;4.25;;;2.10;;
39140;SDS011;24875;48.436;10.298;2022-07-17T08:52:55;3.45;;;2.10;;
39140;SDS011;24875;48.436;10.298;2022-07-17T08:55:22;5.45;;;2.05;;
39140;SDS011;24875;48.436;10.298;2022-07-17T08:57:49;3.28;;;1.90;;
39140;SDS011;24875;48.436;10.298;2022-07-17T09:00:16;2.28;;;1.75;;
39140;SDS011;24875;48.436;10.298;2022-07-17T09:02:54;3.03;;;1.95;;
39140;SDS011;24875;48.436;10.298;2022-07-17T09:05:24;4.60;;;1.88;;
39140;SDS011;24875;48.436;10.298;2022-07-17T09:07:53;6.28;;;2.28;;
39140;SDS011;24875;48.436;10.298;2022-07-17T09:10:29;3.75;;;2.03;;
39140;SDS011;24875;48.436;10.298;2022-07-17T09:12:59;3.33;;;2.00;;
39140;SDS011;24875;48.436;10.298;2022-07-17T09:15:26;4.45;;;1.85;;
39140;SDS011;24875;48.436;10.298;2022-07-17T09:17:54;2.88;;;1.90;;
39140;SDS011;24875;48.436;10.298;2022-07-17T09:20:21;2.13;;;1.63;;
39140;SDS011;24875;48.436;10.298;2022-07-17T09:22:56;3.15;;;2.00;;
39140;SDS011;24875;48.436;10.298;2022-07-17T09:25:37;1.80;;;1.50;;
39140;SDS011;24875;48.436;10.298;2022-07-17T09:28:06;3.03;;;1.92;;
39140;SDS011;24875;48.436;10.298;2022-07-17T09:30:35;4.30;;;1.60;;
39140;SDS011;24875;48.436;10.298;2022-07-17T09:33:06;5.18;;;2.00;;
39140;SDS011;24875;48.436;10.298;2022-07-17T09:35:36;2.42;;;1.88;;
39140;SDS011;24875;48.436;10.298;2022-07-17T09:38:10;3.05;;;2.00;;
39140;SDS011;24875;48.436;10.298;2022-07-17T09:40:39;2.70;;;1.70;;
39140;SDS011;24875;48.436;10.298;2022-07-17T09:43:23;2.75;;;1.88;;
39140;SDS011;24875;48.436;10.298;2022-07-17T09:45:49;3.13;;;1.98;;
39140;SDS011;24875;48.436;10.298;2022-07-17T09:48:16;3.88;;;2.00;;
39140;SDS011;24875;48.436;10.298;2022-07-17T09:50:44;3.80;;;2.00;;
39140;SDS011;24875;48.436;10.298;2022-07-17T09:53:10;4.18;;;1.98;;
39140;SDS011;24875;48.436;10.298;2022-07-17T09:55:37;9.05;;;1.95;;
39140;SDS011;24875;48.436;10.298;2022-07-17T09:58:06;3.88;;;1.60;;
39140;SDS011;24875;48.436;10.298;2022-07-17T10:00:36;3.42;;;1.67;;
39140;SDS011;24875;48.436;10.298;2022-07-17T10:03:03;3.75;;;1.92;;
39140;SDS011;24875;48.436;10.298;2022-07-17T10:05:31;1.83;;;1.52;;
39140;SDS011;24875;48.436;10.298;2022-07-17T10:07:59;2.50;;;1.92;;
39140;SDS011;24875;48.436;10.298;2022-07-17T10:10:26;2.75;;;1.90;;
39140;SDS011;24875;48.436;10.298;2022-07-17T10:12:52;2.80;;;1.70;;
39140;SDS011;24875;48.436;10.298;2022-07-17T10:15:22;2.58;;;1.45;;
39140;SDS011;24875;48.436;10.298;2022-07-17T10:17:50;2.53;;;1.80;;
39140;SDS011;24875;48.436;10.298;2022-07-17T10:20:23;2.92;;;1.55;;
39140;SDS011;24875;48.436;10.298;2022-07-17T10:22:51;4.95;;;1.70;;
39140;SDS011;24875;48.436;10.298;2022-07-17T10:25:19;5.63;;;1.73;;
39140;SDS011;24875;48.436;10.298;2022-07-17T10:27:46;4.07;;;1.83;;
39140;SDS011;24875;48.436;10.298;2022-07-17T10:30:19;2.03;;;1.52;;
39140;SDS011;24875;48.436;10.298;2022-07-17T10:32:51;4.05;;;2.00;;
39140;SDS011;24875;48.436;10.298;2022-07-17T10:35:18;2.97;;;1.65;;
39140;SDS011;24875;48.436;10.298;2022-07-17T10:37:45;5.55;;;1.73;;
39140;SDS011;24875;48.436;10.298;2022-07-17T10:40:14;3.95;;;1.65;;
39140;SDS011;24875;48.436;10.298;2022-07-17T10:42:45;2.78;;;1.60;;
39140;SDS011;24875;48.436;10.298;2022-07-17T10:45:17;2.95;;;1.65;;
39140;SDS011;24875;48.436;10.298;2022-07-17T10:47:45;4.63;;;1.80;;
39140;SDS011;24875;48.436;10.298;2022-07-17T10:50:15;2.10;;;1.60;;
39140;SDS011;24875;48.436;10.298;2022-07-17T10:52:43;1.70;;;1.58;;
39140;SDS011;24875;48.436;10.298;2022-07-17T10:55:19;5.43;;;1.80;;
39140;SDS011;24875;48.436;10.298;2022-07-17T10:57:48;2.35;;;1.67;;
39140;SDS011;24875;48.436;10.298;2022-07-17T11:00:15;3.63;;;1.90;;
39140;SDS011;24875;48.436;10.298;2022-07-17T11:02:42;4.78;;;1.90;;
39140;SDS011;24875;48.436;10.298;2022-07-17T11:05:09;6.00;;;2.60;;
39140;SDS011;24875;48.436;10.298;2022-07-17T11:07:36;6.82;;;1.83;;
39140;SDS011;24875;48.436;10.298;2022-07-17T11:10:14;2.95;;;1.70;;
39140;SDS011;24875;48.436;10.298;2022-07-17T11:12:41;3.95;;;1.58;;
39140;SDS011;24875;48.436;10.298;2022-07-17T11:15:09;2.38;;;1.77;;
39140;SDS011;24875;48.436;10.298;2022-07-17T11:17:35;2.78;;;1.60;;
39140;SDS011;24875;48.436;10.298;2022-07-17T11:20:02;3.20;;;1.60;;
39140;SDS011;24875;48.436;10.298;2022-07-17T11:22:29;4.38;;;1.90;;
39140;SDS011;24875;48.436;10.298;2022-07-17T11:24:56;2.03;;;1.83;;
39140;SDS011;24875;48.436;10.298;2022-07-17T11:27:24;4.80;;;2.25;;
39140;SDS011;24875;48.436;10.298;2022-07-17T11:29:52;2.83;;;2.00;;
39140;SDS011;24875;48.436;10.298;2022-07-17T11:32:22;2.25;;;1.50;;
39140;SDS011;24875;48.436;10.298;2022-07-17T11:34:50;4.03;;;1.67;;
39140;SDS011;24875;48.436;10.298;2022-07-17T11:37:17;3.55;;;1.75;;
39140;SDS011;24875;48.436;10.298;2022-07-17T11:39:44;3.05;;;1.63;;
39140;SDS011;24875;48.436;10.298;2022-07-17T11:42:12;1.70;;;1.25;;
39140;SDS011;24875;48.436;10.298;2022-07-17T11:44:40;1.92;;;1.35;;
39140;SDS011;24875;48.436;10.298;2022-07-17T11:47:08;3.85;;;1.80;;
39140;SDS011;24875;48.436;10.298;2022-07-17T11:49:37;2.00;;;1.60;;
39140;SDS011;24875;48.436;10.298;2022-07-17T11:52:07;4.28;;;1.65;;
39140;SDS011;24875;48.436;10.298;2022-07-17T11:54:42;2.78;;;1.50;;
39140;SDS011;24875;48.436;10.298;2022-07-17T11:57:09;4.20;;;1.50;;
39140;SDS011;24875;48.436;10.298;2022-07-17T11:59:36;2.70;;;1.50;;
39140;SDS011;24875;48.436;10.298;2022-07-17T12:02:06;1.85;;;1.48;;
39140;SDS011;24875;48.436;10.298;2022-07-17T12:04:34;2.72;;;1.33;;
39140;SDS011;24875;48.436;10.298;2022-07-17T12:07:02;2.85;;;1.80;;
39140;SDS011;24875;48.436;10.298;2022-07-17T12:09:29;2.55;;;1.60;;
39140;SDS011;24875;48.436;10.298;2022-07-17T12:11:59;2.30;;;1.50;;
39140;SDS011;24875;48.436;10.298;2022-07-17T12:14:26;4.35;;;1.52;;
39140;SDS011;24875;48.436;10.298;2022-07-17T12:16:55;1.88;;;1.40;;
39140;SDS011;24875;48.436;10.298;2022-07-17T12:19:23;3.35;;;1.63;;
39140;SDS011;24875;48.436;10.298;2022-07-17T12:21:55;2.55;;;1.15;;
39140;SDS011;24875;48.436;10.298;2022-07-17T12:24:26;2.25;;;1.50;;
39140;SDS011;24875;48.436;10.298;2022-07-17T12:26:54;2.63;;;1.40;;
39140;SDS011;24875;48.436;10.298;2022-07-17T12:29:22;4.32;;;1.60;;
39140;SDS011;24875;48.436;10.298;2022-07-17T12:32:00;2.15;;;1.48;;
39140;SDS011;24875;48.436;10.298;2022-07-17T12:34:27;1.85;;;1.38;;
39140;SDS011;24875;48.436;10.298;2022-07-17T12:36:54;2.35;;;1.60;;
39140;SDS011;24875;48.436;10.298;2022-07-17T12:39:20;1.67;;;1.55;;
39140;SDS011;24875;48.436;10.298;2022-07-17T12:41:48;3.08;;;1.60;;
39140;SDS011;24875;48.436;10.298;2022-07-17T12:44:15;1.80;;;1.40;;
39140;SDS011;24875;48.436;10.298;2022-07-17T12:46:41;1.40;;;1.30;;
39140;SDS011;24875;48.436;10.298;2022-07-17T12:49:08;3.05;;;1.60;;
39140;SDS011;24875;48.436;10.298;2022-07-17T12:51:34;2.75;;;1.40;;
39140;SDS011;24875;48.436;10.298;2022-07-17T12:54:01;2.70;;;1.50;;
39140;SDS011;24875;48.436;10.298;2022-07-17T12:56:27;3.95;;;1.52;;
39140;SDS011;24875;48.436;10.298;2022-07-17T12:58:55;2.97;;;1.35;;
39140;SDS011;24875;48.436;10.298;2022-07-17T13:01:22;2.28;;;1.58;;
39140;SDS011;24875;48.436;10.298;2022-07-17T13:03:48;1.55;;;1.30;;
39140;SDS011;24875;48.436;10.298;2022-07-17T13:06:15;1.83;;;1.30;;
39140;SDS011;24875;48.436;10.298;2022-07-17T13:08:41;2.63;;;1.50;;
39140;SDS011;24875;48.436;10.298;2022-07-17T13:11:08;2.75;;;1.50;;
39140;SDS011;24875;48.436;10.298;2022-07-17T13:13:34;2.17;;;1.63;;
39140;SDS011;24875;48.436;10.298;2022-07-17T13:16:02;2.92;;;1.40;;
39140;SDS011;24875;48.436;10.298;2022-07-17T13:18:29;6.82;;;1.73;;
39140;SDS011;24875;48.436;10.298;2022-07-17T13:20:56;1.95;;;1.40;;
39140;SDS011;24875;48.436;10.298;2022-07-17T13:23:22;1.75;;;1.30;;
39140;SDS011;24875;48.436;10.298;2022-07-17T13:25:49;1.67;;;1.40;;
39140;SDS011;24875;48.436;10.298;2022-07-17T13:28:16;2.08;;;1.52;;
39140;SDS011;24875;48.436;10.298;2022-07-17T13:30:42;1.90;;;1.42;;
39140;SDS011;24875;48.436;10.298;2022-07-17T13:33:10;1.98;;;1.58;;
39140;SDS011;24875;48.436;10.298;2022-07-17T13:35:37;2.38;;;1.60;;
39140;SDS011;24875;48.436;10.298;2022-07-17T13:38:03;7.43;;;1.38;;
39140;SDS011;24875;48.436;10.298;2022-07-17T13:40:32;2.70;;;1.30;;
39140;SDS011;24875;48.436;10.298;2022-07-17T13:42:59;1.92;;;1.40;;
39140;SDS011;24875;48.436;10.298;2022-07-17T13:45:26;1.70;;;1.20;;
39140;SDS011;24875;48.436;10.298;2022-07-17T13:47:52;2.42;;;1.38;;
39140;SDS011;24875;48.436;10.298;2022-07-17T13:50:20;2.10;;;1.30;;
39140;SDS011;24875;48.436;10.298;2022-07-17T13:52:47;1.95;;;1.30;;
39140;SDS011;24875;48.436;10.298;2022-07-17T13:55:13;1.67;;;1.52;;
39140;SDS011;24875;48.436;10.298;2022-07-17T13:57:40;1.88;;;1.40;;
39140;SDS011;24875;48.436;10.298;2022-07-17T14:00:07;5.13;;;1.30;;
39140;SDS011;24875;48.436;10.298;2022-07-17T14:02:34;5.13;;;1.33;;
39140;SDS011;24875;48.436;10.298;2022-07-17T14:05:02;2.17;;;1.40;;
39140;SDS011;24875;48.436;10.298;2022-07-17T14:07:32;2.70;;;1.35;;
39140;SDS011;24875;48.436;10.298;2022-07-17T14:09:58;1.75;;;1.40;;
39140;SDS011;24875;48.436;10.298;2022-07-17T14:12:25;2.15;;;1.10;;
39140;SDS011;24875;48.436;10.298;2022-07-17T14:14:52;3.30;;;1.10;;
39140;SDS011;24875;48.436;10.298;2022-07-17T14:17:18;2.10;;;1.60;;
39140;SDS011;24875;48.436;10.298;2022-07-17T14:19:45;3.83;;;1.13;;
39140;SDS011;24875;48.436;10.298;2022-07-17T14:22:12;1.17;;;0.98;;
39140;SDS011;24875;48.436;10.298;2022-07-17T14:24:40;1.77;;;1.13;;
39140;SDS011;24875;48.436;10.298;2022-07-17T14:27:06;2.80;;;1.10;;
39140;SDS011;24875;48.436;10.298;2022-07-17T14:29:33;2.85;;;1.10;;
39140;SDS011;24875;48.436;10.298;2022-07-17T14:31:59;1.23;;;1.00;;
39140;SDS011;24875;48.436;10.298;2022-07-17T14:34:26;1.83;;;1.20;;